Winslow Lindbergh Regional Airport
KINW : now visible

Airfield :











YOU CAN JOIN US ON...

 
LOGIN :

Register | Disclaimer

   EN    FR    IT 

 









Legend :    VFR   Marginal VFR   IFR   Intensive IFR   Very Intensive IFR
Visi :
Ceiling :
>= 8 km
>= 3000ft
5 to 8 km
1000 to 3000 ft
1500m to 5 km
500 to 1000 ft
800 to 1500m
200 to 500 ft
< 800m
< 200 ft
Symbols :   Thunderstorms  Fog  Heavy snow  Heavy precipitations  Wind > 20 kt






- Airport Elevation : 4941 ft


KINW - Winslow Lindbergh Regional

CURRENT METAR :
  • 021856Z AUTO 22022G32KT 10SM CLR 21/M04 A2986 RMK AO2 PK WND 22032/1849 SLP060 T02111044

EXPIRED METARs :
  • 021756Z AUTO 23024G32KT 10SM CLR 20/M04 A2987 RMK AO2 PK WND 24032/1754 SLP065 T02001039 10200 20067 52000
  • 021656Z AUTO 23019G29KT 10SM CLR 18/M03 A2988 RMK AO2 PK WND 22030/1610 SLP067 T01831028

TAF KINW
Valid from the 02 at 18:00 until the 03 at 18:00 UTC


021727Z 0218/0318 22025G35KT P6SM SKC
FM030300 24014KT P6SM SKC
FM030600 25007KT P6SM SKC



MET'MAP, your aeronautical weather chart ! - Copyright ORBIFLY December 2007 - Disclaimer

ORBIFLY MET'MAP TEAM :

Programming & Development : Alexandra Zaïnal
Concept & original design : Baudouin d'Aumeries
Assistance for programming : Marc-Olivier Méhu
Technical & hardware support : Manuel Goepfert

Contact : metmap@orbifly.com




SOURCES & CREDITS :

   NOAA       Earth
Advisory